Accueil
METAR-TAF:

METAR-TAF

Aéroports :

Aéroport de Saint-Pierre Pierrefonds

Saint-Pierre, Réunion

latitude: 21-20S, longitude: 055-29E, altitude: 52 m

Observation

Le bulletin a été fait il y a 15 minutes, à 13:00 UTC
Vent 7 kt de nord-est
Température 24°C
Humidité 89%
Pression 1012 hPa
Visibilité 10 km ou plus

METAR: FMEP 061300Z AUTO 04007KT 9999 OVC032/// ///TCU 24/22 Q1012 TEMPO SHRA

Heure: 17:15 (13:15 UTC)

Prévision

Le bulletin a été fait il y a 16 minutes, à 12:59 UTC
Prévision valable du 06 à 12 UTC au 06 à 21 UTC
Vent 8 kt de sud
Visibilité 10 km ou plus
Nuages fragmentés à une hauteur de 2000 ft
Nuages fragmentés à une hauteur de 6000 ft
Probabilité 30% :
Temporairement
du 06 à 12 UTC au 06 à 18 UTC
Visibilité: 4000 m
Nuages fragmentés à une hauteur de 2000 ft, Cumulus congestus.
averses de pluie

TAF: FMEP 061259Z 0612/0621 18008KT 9999 BKN020 BKN060 PROB30 TEMPO 0612/0618 4000 SHRA BKN020TCU

Observations et prévisions météorologiques de plus de 4000 aéroports (messages METAR et TAF).

Les stations disponibles sont représentées par des disques jaunes et rouges sur la carte.

Passer la souris dessus pour voir le nom de la station.

Cliquer dessus pour voir les observations et prévisions météorologiques.

Pour changer de carte: cliquez sur les boutons verts avec une croix noire pour zoomer, sur le bouton vert avec un tiret pour effectuer un zoom arrière, ou sur les flèches vertes pour les cartes adjacentes.


METAR-TAF: